Surface observations / Quebec / CYHU (71371)

Quebec | Canada | USA | France | UK | Europe | Elsewhere

Display: Info & Location for CYHU (71371) | Help decoding METAR

CYHU MONTREAL/ST HUBERT A QB CN
Raw surface observations for station CYHU
CYHU 042100Z AUTO 27016G25KT 9SM SCT060 SCT120 25/13 A2976 RMK SLP078 DENSITY ALT 1400FT=
CYHU 042000Z AUTO 23019G26KT 9SM BKN055 BKN066 BKN088 23/13 A2976 RMK SLP077 DENSITY ALT 1200FT=
CYHU 041900Z AUTO 24018G25KT 9SM CLR 25/13 A2976 RMK SLP078 DENSITY ALT 1400FT=
CYHU 041800Z AUTO 22012G23KT 9SM CLR 25/14 A2977 RMK SLP080 DENSITY ALT 1300FT=
CYHU 041700Z AUTO 23017G26KT 9SM BKN100 24/14 A2977 RMK SLP081 DENSITY ALT 1300FT=
CYHU 041600Z AUTO 24017G22KT 9SM BKN110 BKN130 24/14 A2978 RMK SLP085 DENSITY ALT 1200FT=
CYHU 041500Z AUTO 22013G19KT 9SM CLR 23/15 A2979 RMK SLP086 DENSITY ALT 1100FT=
CYHU 041400Z AUTO 21009KT 9SM BKN100 OVC120 21/16 A2978 RMK SLP083 DENSITY ALT 900FT=
CYHU 041300Z AUTO 23010G15KT 9SM BKN095 BKN130 21/15 A2978 RMK SLP083 DENSITY ALT 900FT=
CYHU 041200Z AUTO 15006KT 9SM BKN080 18/15 A2978 RMK SLP083 DENSITY ALT 600FT=
CYHU 041100Z AUTO 23006KT 9SM CLR 19/14 A2977 RMK SLP082 DENSITY ALT 600FT=
CYHU 041000Z AUTO 24007KT 9SM CLR 17/15 A2977 RMK SLP079 DENSITY ALT 500FT=
CYHU 040900Z AUTO 22010KT 9SM CLR 18/15 A2975 RMK SLP073 DENSITY ALT 600FT=
CYHU 040800Z AUTO 23009KT 9SM CLR 18/15 A2974 RMK SLP070 DENSITY ALT 700FT=
CYHU 040700Z AUTO 23010KT 9SM CLR 19/16 A2973 RMK SLP067 DENSITY ALT 700FT=
CYHU 040600Z AUTO 22006KT 9SM CLR 18/16 A2972 RMK SLP065 DENSITY ALT 600FT=
CYHU 040500Z AUTO 18007KT 9SM CLR 18/15 A2973 RMK SLP067 DENSITY ALT 700FT=
CYHU 040400Z AUTO 21005KT 9SM SCT044 19/16 A2972 RMK SLP063 DENSITY ALT 700FT=
CYHU 040300Z AUTO 18004KT 140V230 9SM CLR 19/15 A2972 RMK SLP063 DENSITY ALT 700FT=
CYHU 040200Z AUTO 24006KT 9SM CLR 21/15 A2971 RMK SLP060 DENSITY ALT 1000FT=
CYHU 040100Z AUTO 22012G17KT 9SM FEW040 23/16 A2970 RMK SLP057 DENSITY ALT 1200FT=
CYHU 040000Z AUTO 26014G23KT 9SM FEW040 SCT095 24/17 A2968 RMK SLP050 DENSITY ALT 1300FT=
CYHU 032300Z AUTO 24009KT 9SM FEW046 25/17 A2966 RMK SLP042 DENSITY ALT 1500FT=
CYHU 032200Z AUTO 23015G21KT 9SM FEW050 SCT140 25/17 A2966 RMK SLP043 DENSITY ALT 1500FT=
CYHU 032100Z AUTO 23017KT 9SM FEW100 BKN130 25/17 A2966 RMK SLP042 DENSITY ALT 1500FT=